Rechercher aéroport 
image banner adimage banner adimage banner ad
image banner ad

KNUQ - Moffett Federal Afld

Situé à Mountain View, United States

ICAO - NUQ, IATA -

Données fournies par Airmate  

Information générale

Coordonnées: N37°24'58" W122°2'57"
Élévation : 37 feet MSL.
Variation magnétique : 16° East
Voir autres Aéroports à California

Données opérationnelles

Special qualification required
Heure actuelle UTC:
Heure actuelle locale:
Météo
METAR: KNUQ 251115Z AUTO 36005KT 10SM OVC008 15/13 A2996 RMK AO2
Voir NOTAMs / SUP AIP / TFR affectant cet aéroport [VIEW]
Fréquences de communication: [VIEW]

Pistes:

Identifiant RWYQFULongueur (ft)Largeur (ft)SurfaceLDA (ft)
14R157°8122200ASPH
32L337°8122200ASPH
14L157°9197200CONC
32R337°9197200CONC

Coordonnées de l'aéroport

Adresse: Mountain View United States

Vue satellite de KNUQ